Time;durP1;ratioP1;P1;durP2;ratioP2;P2;SDS_P1;SDS_P2;PMS_P1;PMS_P2;Temp;Humidity;BMP_temperature;BMP_pressure;BME280_temperature;BME280_humidity;BME280_pressure;Samples;Min_cycle;Max_cycle;Signal;HPM_P1;HPM_P2
2021/12/21 00:00:57;;;;;;;163.52;80.18;;;0.20;99.90;;;;;;5016119;28;20034;-78
2021/12/21 00:03:24;;;;;;;167.73;82.43;;;0.10;99.90;;;;;;5017700;28;20023;-78
2021/12/21 00:05:50;;;;;;;163.93;82.63;;;0.20;99.90;;;;;;5017069;28;20033;-78
2021/12/21 00:08:17;;;;;;;136.63;74.13;;;0.10;99.90;;;;;;5015911;28;20065;-77
2021/12/21 00:10:46;;;;;;;136.90;69.93;;;0.10;99.90;;;;;;5016116;28;20445;-78
2021/12/21 00:16:41;;;;;;;128.18;67.50;;;0.10;99.90;;;;;;5017551;28;20057;-78
2021/12/21 00:19:02;;;;;;;131.57;66.95;;;0.10;99.90;;;;;;5017622;28;20045;-78
2021/12/21 00:21:41;;;;;;;122.60;63.92;;;0.00;99.90;;;;;;5015985;28;20041;-78
2021/12/21 00:24:18;;;;;;;136.23;67.97;;;0.00;99.90;;;;;;5017461;28;20371;-78
2021/12/21 00:26:43;;;;;;;126.45;64.88;;;0.00;99.90;;;;;;5015842;28;20041;-78
2021/12/21 00:29:09;;;;;;;136.75;67.68;;;0.00;99.90;;;;;;5017133;28;20026;-78
2021/12/21 00:31:37;;;;;;;134.40;69.38;;;0.00;99.90;;;;;;5017370;28;20022;-78
2021/12/21 00:34:06;;;;;;;150.65;73.68;;;0.10;99.90;;;;;;5017233;28;20026;-78
2021/12/21 00:36:33;;;;;;;142.02;71.25;;;0.10;99.90;;;;;;5015811;28;20054;-78
2021/12/21 00:39:04;;;;;;;161.25;75.13;;;0.10;99.90;;;;;;5015876;28;20924;-78
2021/12/21 00:41:31;;;;;;;159.73;75.28;;;0.20;99.90;;;;;;5015748;28;20036;-77
2021/12/21 00:43:57;;;;;;;152.20;75.05;;;0.10;99.90;;;;;;5017080;28;20109;-77
2021/12/21 00:46:23;;;;;;;132.07;70.32;;;0.10;99.90;;;;;;5017122;28;20061;-78
2021/12/21 00:48:52;;;;;;;136.05;70.68;;;0.10;99.90;;;;;;5016720;28;20482;-78
2021/12/21 00:51:20;;;;;;;125.35;68.22;;;0.00;99.90;;;;;;5017014;28;20033;-77
2021/12/21 00:53:46;;;;;;;129.48;69.43;;;-0.10;99.90;;;;;;5017147;28;20018;-78
2021/12/21 00:56:12;;;;;;;137.93;70.28;;;-0.10;99.90;;;;;;5015674;28;20076;-78
2021/12/21 00:58:38;;;;;;;130.00;66.88;;;-0.10;99.90;;;;;;5018679;28;20834;-78
2021/12/21 01:01:06;;;;;;;139.10;67.78;;;-0.10;99.90;;;;;;5019449;28;20068;-78
2021/12/21 01:03:34;;;;;;;126.43;66.97;;;-0.20;99.90;;;;;;5020713;28;20125;-77
2021/12/21 01:06:11;;;;;;;118.55;63.53;;;-0.20;99.90;;;;;;5020624;28;20036;-78
2021/12/21 01:08:55;;;;;;;119.50;65.28;;;-0.20;99.90;;;;;;5019548;28;20033;-78
2021/12/21 01:11:28;;;;;;;124.18;68.47;;;-0.30;99.90;;;;;;5020845;28;20076;-78
2021/12/21 01:16:45;;;;;;;129.32;67.38;;;-0.30;99.90;;;;;;5020882;28;20032;-78
2021/12/21 01:21:57;;;;;;;136.05;70.40;;;-0.30;99.90;;;;;;5020495;28;20022;-78
2021/12/21 01:35:20;;;;;;;133.13;70.65;;;-0.30;99.90;;;;;;5020190;28;20054;-78
2021/12/21 01:40:56;;;;;;;126.47;69.18;;;-0.30;99.90;;;;;;5020370;28;20022;-78
2021/12/21 01:51:20;;;;;;;141.27;72.55;;;-0.40;99.90;;;;;;5018816;28;20109;-78
2021/12/21 01:53:47;;;;;;;132.30;71.15;;;-0.40;99.90;;;;;;5015630;28;20018;-78
2021/12/21 01:56:14;;;;;;;151.93;76.53;;;-0.40;99.90;;;;;;5017751;28;20109;-78
2021/12/21 01:58:40;;;;;;;190.90;84.45;;;-0.40;99.90;;;;;;5019303;28;20442;-77
2021/12/21 02:01:09;;;;;;;196.85;85.13;;;-0.30;99.90;;;;;;5007226;28;20025;-78
2021/12/21 02:03:35;;;;;;;205.25;89.00;;;-0.30;99.90;;;;;;5018300;28;20109;-78
2021/12/21 02:06:01;;;;;;;219.73;85.03;;;-0.30;99.90;;;;;;5018575;28;20025;-78
2021/12/21 02:08:27;;;;;;;206.35;84.72;;;-0.30;99.90;;;;;;5017779;28;20034;-78
2021/12/21 02:10:53;;;;;;;254.75;90.78;;;-0.30;99.90;;;;;;5018159;28;20117;-78
2021/12/21 02:13:18;;;;;;;225.85;86.20;;;-0.30;99.90;;;;;;5019576;28;20037;-77
2021/12/21 02:15:44;;;;;;;212.10;85.53;;;-0.20;99.90;;;;;;5020018;28;20029;-77
2021/12/21 02:20:48;;;;;;;217.80;86.53;;;-0.30;99.90;;;;;;5039440;28;20025;-78
2021/12/21 02:23:20;;;;;;;183.95;84.60;;;-0.40;99.90;;;;;;5039411;28;20075;-77
2021/12/21 02:29:16;;;;;;;276.13;100.10;;;-0.40;99.90;;;;;;5037829;28;20429;-78
2021/12/21 02:31:46;;;;;;;210.13;99.70;;;-0.40;99.90;;;;;;5051220;28;20044;-78
2021/12/21 02:34:13;;;;;;;219.75;96.18;;;-0.30;99.90;;;;;;5019267;28;20025;-77
2021/12/21 02:36:42;;;;;;;219.18;101.10;;;-0.30;99.90;;;;;;5017821;28;20041;-77
2021/12/21 02:39:08;;;;;;;202.52;96.40;;;-0.30;99.90;;;;;;5019296;28;20105;-78
2021/12/21 02:41:36;;;;;;;371.15;111.82;;;-0.30;99.90;;;;;;5019180;28;20486;-78
2021/12/21 02:44:02;;;;;;;262.50;100.85;;;-0.30;99.90;;;;;;5019190;28;20045;-78
2021/12/21 02:46:28;;;;;;;237.13;99.38;;;-0.30;99.90;;;;;;5019093;28;20088;-77
2021/12/21 02:48:54;;;;;;;215.25;95.85;;;-0.20;99.90;;;;;;5018717;28;20026;-78
2021/12/21 02:51:20;;;;;;;209.63;88.60;;;-0.20;99.90;;;;;;5019108;28;20014;-78
2021/12/21 02:53:46;;;;;;;195.63;87.28;;;-0.20;99.90;;;;;;5019060;28;20097;-77
2021/12/21 02:56:12;;;;;;;190.23;90.13;;;-0.20;99.90;;;;;;5018880;28;20014;-78
2021/12/21 02:58:39;;;;;;;184.57;86.07;;;-0.20;99.90;;;;;;5018618;28;20040;-78
2021/12/21 03:01:07;;;;;;;178.13;90.22;;;-0.30;99.90;;;;;;5037727;28;20028;-78
2021/12/21 03:03:33;;;;;;;162.82;83.05;;;-0.40;99.90;;;;;;5018620;28;20060;-78
2021/12/21 03:06:01;;;;;;;159.25;78.35;;;-0.50;99.90;;;;;;5018735;28;20026;-78
2021/12/21 03:08:38;;;;;;;146.77;78.88;;;-0.60;99.90;;;;;;5018611;28;20022;-78
2021/12/21 03:11:13;;;;;;;174.57;82.28;;;-0.60;99.90;;;;;;5018720;28;20025;-78
2021/12/21 03:13:55;;;;;;;259.75;91.63;;;-0.60;99.90;;;;;;5017132;28;20088;-77
2021/12/21 03:16:22;;;;;;;207.15;87.53;;;-0.50;99.90;;;;;;5017587;28;20026;-78
2021/12/21 03:18:47;;;;;;;161.88;78.05;;;-0.40;99.90;;;;;;5018341;28;20057;-77
2021/12/21 03:21:14;;;;;;;157.93;75.57;;;-0.40;99.90;;;;;;5018531;28;20029;-78
2021/12/21 03:23:40;;;;;;;142.75;71.38;;;-0.40;99.90;;;;;;5017013;28;20030;-78
2021/12/21 03:26:06;;;;;;;183.02;74.43;;;-0.30;99.90;;;;;;5018390;28;20375;-78
2021/12/21 03:28:33;;;;;;;183.98;73.03;;;-0.40;99.90;;;;;;5018327;28;20517;-78
2021/12/21 03:30:59;;;;;;;190.35;77.28;;;-0.30;99.90;;;;;;5018274;28;20491;-77
2021/12/21 03:33:25;;;;;;;162.52;80.13;;;-0.30;99.90;;;;;;5017903;28;20026;-77
2021/12/21 03:35:51;;;;;;;135.88;69.75;;;-0.30;99.90;;;;;;5017184;28;20052;-78
2021/12/21 03:38:17;;;;;;;146.93;67.03;;;-0.30;99.90;;;;;;5018064;28;20506;-77
2021/12/21 03:40:45;;;;;;;148.63;70.47;;;-0.20;99.90;;;;;;5018025;28;20096;-78
2021/12/21 03:43:11;;;;;;;219.23;80.25;;;-0.20;99.90;;;;;;5016556;28;20025;-77
2021/12/21 03:45:46;;;;;;;164.68;75.57;;;-0.30;99.90;;;;;;5017993;28;20022;-79
2021/12/21 03:48:14;;;;;;;154.25;75.95;;;-0.30;99.90;;;;;;5017856;28;20036;-79
2021/12/21 03:50:40;;;;;;;170.02;77.32;;;-0.30;99.90;;;;;;5016513;28;20556;-78
2021/12/21 03:53:06;;;;;;;247.52;87.07;;;-0.40;99.90;;;;;;5017057;28;20021;-80
2021/12/21 03:55:32;;;;;;;185.90;77.65;;;-0.40;99.90;;;;;;5017734;28;20026;-79
2021/12/21 03:57:58;;;;;;;201.88;80.28;;;-0.50;99.90;;;;;;5017738;28;20037;-79
2021/12/21 04:00:27;;;;;;;200.73;78.13;;;-0.60;99.90;;;;;;5017652;28;20030;-79
2021/12/21 04:02:52;;;;;;;155.98;72.28;;;-0.60;99.90;;;;;;5017706;28;20030;-79
2021/12/21 04:05:18;;;;;;;205.77;81.15;;;-0.70;99.90;;;;;;5017573;28;20030;-79
2021/12/21 04:07:44;;;;;;;159.93;76.70;;;-0.70;99.90;;;;;;5017768;28;20053;-79
2021/12/21 04:10:10;;;;;;;164.93;75.18;;;-0.80;99.90;;;;;;5017442;28;20022;-79
2021/12/21 04:12:36;;;;;;;178.48;74.13;;;-0.80;99.90;;;;;;5017762;28;20022;-79
2021/12/21 04:15:03;;;;;;;181.82;75.15;;;-0.90;99.90;;;;;;5016256;28;20040;-79
2021/12/21 04:17:31;;;;;;;179.75;79.45;;;-0.90;99.90;;;;;;5017602;28;20079;-79
2021/12/21 04:19:56;;;;;;;197.63;82.13;;;-0.90;99.90;;;;;;5016189;28;20045;-79
2021/12/21 04:22:22;;;;;;;149.25;72.50;;;-0.90;99.90;;;;;;5017428;28;20028;-79
2021/12/21 04:24:48;;;;;;;144.50;70.95;;;-0.90;99.90;;;;;;5017593;28;20038;-79
2021/12/21 04:27:15;;;;;;;129.93;65.60;;;-0.90;99.90;;;;;;5016100;28;20025;-79
2021/12/21 04:29:41;;;;;;;121.88;61.28;;;-1.00;99.90;;;;;;5015953;28;20029;-79
2021/12/21 04:32:07;;;;;;;131.88;66.82;;;-1.00;99.90;;;;;;5015671;28;20022;-81
2021/12/21 04:34:34;;;;;;;134.15;62.92;;;-1.00;99.90;;;;;;5015709;28;20053;-80
2021/12/21 04:37:00;;;;;;;114.72;59.65;;;-0.90;99.90;;;;;;5017335;28;20022;-80
2021/12/21 04:39:37;;;;;;;123.82;59.10;;;-0.80;99.90;;;;;;5017271;28;20037;-80
2021/12/21 04:42:03;;;;;;;108.55;54.85;;;-0.80;99.90;;;;;;5017384;28;20022;-77
2021/12/21 04:44:29;;;;;;;134.93;55.08;;;-0.70;99.90;;;;;;5017123;28;20112;-80
2021/12/21 04:46:55;;;;;;;118.30;51.97;;;-0.60;99.90;;;;;;5015860;28;20092;-80
2021/12/21 04:49:21;;;;;;;101.03;48.65;;;-0.50;99.90;;;;;;5033319;28;20029;-80
2021/12/21 04:51:46;;;;;;;88.20;44.42;;;-0.40;99.90;;;;;;5019839;28;20080;-80
2021/12/21 04:54:12;;;;;;;135.77;54.55;;;-0.30;99.90;;;;;;5016979;28;20026;-80
2021/12/21 04:56:38;;;;;;;198.85;70.82;;;-0.20;99.90;;;;;;5016627;28;20029;-80
2021/12/21 04:59:04;;;;;;;186.10;69.68;;;0.00;99.90;;;;;;5018860;28;20026;-80
2021/12/21 05:01:30;;;;;;;100.05;42.58;;;0.00;99.90;;;;;;5015382;28;20050;-80
2021/12/21 05:03:55;;;;;;;106.32;52.33;;;0.10;99.90;;;;;;5015721;28;20387;-79
2021/12/21 05:06:21;;;;;;;109.38;47.13;;;0.20;99.90;;;;;;5017918;28;20100;-78
2021/12/21 05:09:03;;;;;;;103.65;41.63;;;0.20;99.90;;;;;;5018743;28;20092;-78
2021/12/21 05:11:33;;;;;;;103.00;42.55;;;0.30;99.90;;;;;;5016863;28;20474;-78
2021/12/21 05:13:59;;;;;;;136.27;57.03;;;0.30;99.90;;;;;;5016741;28;20458;-78
2021/12/21 05:16:25;;;;;;;110.45;43.17;;;0.30;99.90;;;;;;5017262;28;20033;-78
2021/12/21 05:18:51;;;;;;;86.38;39.55;;;0.40;99.90;;;;;;5017781;28;20022;-78
2021/12/21 05:21:16;;;;;;;98.82;45.88;;;0.40;99.90;;;;;;5015306;28;20077;-78
2021/12/21 05:23:42;;;;;;;88.65;39.55;;;0.40;99.90;;;;;;5018828;28;20026;-77
2021/12/21 05:26:08;;;;;;;80.53;40.15;;;0.40;99.90;;;;;;5015143;28;20022;-79
2021/12/21 05:28:34;;;;;;;82.10;38.42;;;0.50;99.90;;;;;;5015888;28;20540;-78
2021/12/21 05:30:59;;;;;;;82.03;37.90;;;0.50;99.90;;;;;;5018238;28;20026;-77
2021/12/21 05:33:27;;;;;;;71.72;35.28;;;0.50;99.90;;;;;;5017368;28;20030;-77
2021/12/21 05:35:53;;;;;;;79.13;41.17;;;0.50;99.90;;;;;;5016775;28;20489;-78
2021/12/21 05:38:28;;;;;;;77.20;36.70;;;0.60;99.90;;;;;;5017577;28;20020;-78
2021/12/21 05:40:54;;;;;;;65.45;33.10;;;0.60;99.90;;;;;;5014354;28;20474;-78
2021/12/21 05:43:21;;;;;;;81.70;32.85;;;0.60;99.90;;;;;;5018044;28;20104;-78
2021/12/21 05:45:46;;;;;;;57.67;28.10;;;0.60;99.90;;;;;;5019902;28;20014;-78
2021/12/21 05:48:12;;;;;;;56.60;29.73;;;0.60;99.90;;;;;;5040013;28;20026;-78
2021/12/21 05:50:38;;;;;;;50.10;28.23;;;0.60;99.90;;;;;;5029758;28;20042;-78
2021/12/21 05:53:04;;;;;;;51.85;26.70;;;0.70;99.90;;;;;;5009674;28;20402;-78
2021/12/21 05:55:30;;;;;;;62.95;30.25;;;0.70;99.90;;;;;;5018592;28;20026;-77
2021/12/21 05:57:56;;;;;;;48.28;25.50;;;0.70;99.90;;;;;;5018502;28;20032;-78
2021/12/21 06:00:31;;;;;;;44.97;25.67;;;0.70;99.90;;;;;;5017801;28;20033;-78
2021/12/21 06:02:57;;;;;;;54.15;24.55;;;0.70;99.90;;;;;;5017903;28;20390;-78
2021/12/21 06:05:23;;;;;;;44.65;24.15;;;0.70;99.90;;;;;;5019115;28;20026;-78
2021/12/21 06:07:52;;;;;;;43.78;21.98;;;0.70;99.90;;;;;;5018971;28;20571;-79
2021/12/21 06:10:33;;;;;;;39.75;22.48;;;0.80;99.90;;;;;;5019087;28;20038;-78
2021/12/21 06:24:46;;;;;;;50.67;23.63;;;0.90;99.90;;;;;;5007293;28;20056;-80
2021/12/21 06:26:36;;;;;;;45.17;21.52;;;0.90;99.90;;;;;;5019229;28;20394;-78
2021/12/21 06:29:02;;;;;;;51.80;22.33;;;0.90;99.90;;;;;;5019380;28;20916;-78
2021/12/21 06:31:28;;;;;;;54.20;29.80;;;0.90;99.90;;;;;;5019353;28;20033;-78
2021/12/21 06:33:54;;;;;;;36.22;20.83;;;0.90;99.90;;;;;;5017940;28;20105;-78
2021/12/21 06:36:21;;;;;;;53.53;20.58;;;0.90;99.90;;;;;;5017872;28;20635;-77
2021/12/21 06:38:47;;;;;;;57.15;26.52;;;1.00;99.90;;;;;;5019518;28;20026;-78
2021/12/21 06:41:13;;;;;;;35.58;20.30;;;1.00;99.90;;;;;;5019318;28;20474;-78
2021/12/21 06:43:38;;;;;;;55.78;21.30;;;1.00;99.90;;;;;;5019386;28;20030;-78
2021/12/21 06:46:30;;;;;;;58.97;21.20;;;1.10;99.90;;;;;;5018690;28;20375;-78
2021/12/21 06:51:52;;;;;;;48.00;17.83;;;1.10;99.90;;;;;;5019142;28;20033;-78
2021/12/21 06:54:18;;;;;;;30.83;12.77;;;1.20;99.90;;;;;;5018864;28;20031;-77
2021/12/21 06:56:44;;;;;;;48.25;15.38;;;1.20;99.90;;;;;;5018593;28;20030;-77
2021/12/21 06:59:10;;;;;;;30.90;15.35;;;1.20;99.90;;;;;;5018834;28;20519;-78
2021/12/21 07:01:38;;;;;;;37.75;13.95;;;1.30;99.90;;;;;;5018859;28;20029;-80
2021/12/21 07:04:05;;;;;;;47.53;15.55;;;1.30;99.90;;;;;;5018544;28;20013;-79
2021/12/21 07:06:36;;;;;;;50.10;16.80;;;1.30;99.90;;;;;;5018644;28;20060;-78
2021/12/21 07:20:11;;;;;;;36.08;14.80;;;1.60;99.90;;;;;;5018345;28;20081;-78
2021/12/21 07:22:36;;;;;;;38.15;15.35;;;1.60;99.90;;;;;;5016787;28;20034;-78
2021/12/21 07:25:03;;;;;;;34.13;14.90;;;1.60;99.90;;;;;;5017070;28;20387;-78
2021/12/21 07:27:28;;;;;;;30.30;16.90;;;1.70;99.90;;;;;;5017073;28;20034;-79
2021/12/21 07:29:54;;;;;;;25.77;16.30;;;1.70;99.90;;;;;;5016804;28;20482;-78
2021/12/21 07:32:20;;;;;;;30.05;14.13;;;1.80;99.90;;;;;;5018139;28;20025;-78
2021/12/21 07:34:45;;;;;;;26.70;15.02;;;1.90;99.90;;;;;;5016897;28;20032;-78
2021/12/21 07:37:11;;;;;;;30.48;15.65;;;1.90;99.90;;;;;;5018317;28;20053;-78
2021/12/21 07:39:37;;;;;;;38.10;19.13;;;2.00;99.90;;;;;;5016906;28;20025;-78
2021/12/21 07:42:05;;;;;;;38.08;18.42;;;2.10;99.90;;;;;;5016796;28;20566;-77
2021/12/21 07:44:30;;;;;;;20.38;11.82;;;2.10;99.90;;;;;;5018105;28;20057;-78
2021/12/21 07:46:56;;;;;;;25.30;16.10;;;2.20;99.90;;;;;;5018203;28;20045;-77
2021/12/21 07:49:22;;;;;;;37.20;19.30;;;2.20;99.90;;;;;;5017770;28;20050;-78
2021/12/21 07:51:51;;;;;;;39.30;20.50;;;2.30;99.90;;;;;;5016960;28;20064;-78
2021/12/21 07:54:18;;;;;;;35.33;19.83;;;2.30;99.90;;;;;;5048869;28;20037;-78
2021/12/21 07:56:44;;;;;;;38.72;19.85;;;2.40;99.90;;;;;;5017718;28;20440;-78
2021/12/21 07:59:11;;;;;;;42.05;23.35;;;2.40;99.90;;;;;;5018003;28;20018;-78
2021/12/21 08:01:38;;;;;;;48.00;22.75;;;2.50;99.90;;;;;;5017922;28;20466;-78
2021/12/21 08:04:07;;;;;;;52.78;26.40;;;2.50;99.90;;;;;;5016175;28;20034;-78
2021/12/21 08:06:34;;;;;;;51.10;25.17;;;2.60;99.90;;;;;;5016715;28;20042;-78
2021/12/21 08:09:01;;;;;;;48.55;25.23;;;2.70;99.90;;;;;;5016111;28;20121;-78
2021/12/21 08:12:11;;;;;;;49.33;24.23;;;2.70;99.90;;;;;;5018363;28;20022;-78
2021/12/21 08:14:13;;;;;;;54.13;24.65;;;2.80;99.90;;;;;;5017868;28;20026;-78
2021/12/21 08:16:39;;;;;;;46.22;25.30;;;2.80;99.90;;;;;;5017502;28;20032;-78
2021/12/21 08:19:05;;;;;;;57.92;25.50;;;2.90;99.90;;;;;;5017213;28;20022;-78
2021/12/21 08:21:31;;;;;;;51.00;26.27;;;2.90;99.90;;;;;;5017528;28;20034;-78
2021/12/21 08:23:57;;;;;;;57.47;28.25;;;2.90;99.90;;;;;;5016851;28;20041;-79
2021/12/21 08:26:23;;;;;;;54.28;28.77;;;2.90;99.90;;;;;;5002778;28;20022;-78
2021/12/21 08:28:49;;;;;;;50.50;26.35;;;3.00;99.90;;;;;;5017452;28;20053;-79
2021/12/21 08:31:16;;;;;;;52.15;29.75;;;3.00;99.90;;;;;;5049337;28;20064;-78
2021/12/21 08:33:43;;;;;;;105.45;55.05;;;3.10;99.90;;;;;;5017155;28;20104;-78
2021/12/21 08:36:10;;;;;;;536.80;229.73;;;3.10;99.90;;;;;;5017307;28;20086;-80
2021/12/21 08:38:39;;;;;;;95.78;46.13;;;3.10;99.90;;;;;;5016160;28;20014;-78
2021/12/21 08:41:05;;;;;;;65.07;33.85;;;3.20;99.90;;;;;;5017497;28;20044;-78
2021/12/21 08:43:32;;;;;;;80.43;37.75;;;3.30;99.90;;;;;;5015352;28;20016;-78
2021/12/21 08:45:59;;;;;;;103.00;46.65;;;3.30;99.90;;;;;;5006627;28;20117;-78
2021/12/21 08:48:26;;;;;;;154.88;66.78;;;3.40;99.90;;;;;;5012238;28;20060;-78
2021/12/21 08:50:54;;;;;;;142.20;64.88;;;3.40;99.90;;;;;;5045034;28;20029;-78
2021/12/21 08:53:21;;;;;;;79.03;38.00;;;3.40;99.90;;;;;;5037030;28;20033;-79
2021/12/21 08:55:47;;;;;;;335.23;161.73;;;3.40;99.90;;;;;;5031381;28;20056;-78
2021/12/21 08:58:14;;;;;;;58.97;33.92;;;3.50;99.90;;;;;;5017175;28;20026;-79
2021/12/21 09:00:43;;;;;;;55.67;33.00;;;3.50;99.90;;;;;;5016610;28;20044;-78
2021/12/21 09:03:10;;;;;;;189.13;87.43;;;3.60;99.90;;;;;;5013749;28;20037;-79
2021/12/21 09:05:36;;;;;;;136.07;62.30;;;3.60;99.90;;;;;;5017096;28;20076;-80
2021/12/21 09:08:03;;;;;;;89.63;47.47;;;3.70;99.90;;;;;;5014023;28;20501;-83
2021/12/21 09:10:31;;;;;;;229.48;102.95;;;3.70;99.90;;;;;;5017902;28;20041;-87
2021/12/21 09:12:59;;;;;;;63.08;34.45;;;3.80;99.90;;;;;;5025416;28;20072;-81
2021/12/21 09:15:26;;;;;;;76.68;42.72;;;3.80;99.90;;;;;;5017072;28;20121;-83
2021/12/21 09:17:52;;;;;;;228.85;101.55;;;3.90;99.90;;;;;;5015873;28;20021;-81
2021/12/21 09:20:22;;;;;;;51.22;30.95;;;4.00;99.90;;;;;;5029732;28;20025;-81
2021/12/21 09:22:49;;;;;;;57.03;32.73;;;4.00;99.90;;;;;;5020399;28;20109;-80
2021/12/21 09:25:16;;;;;;;53.83;31.67;;;4.10;99.90;;;;;;5017422;28;20570;-80
2021/12/21 09:27:42;;;;;;;93.72;50.45;;;4.10;99.90;;;;;;5020159;28;20482;-80
2021/12/21 09:30:11;;;;;;;57.75;30.35;;;4.20;99.90;;;;;;5019799;28;20029;-79
2021/12/21 09:32:38;;;;;;;134.75;71.70;;;4.20;99.90;;;;;;5018888;28;20029;-80
2021/12/21 09:35:04;;;;;;;46.78;30.08;;;4.20;99.90;;;;;;5018714;28;20022;-80
2021/12/21 09:37:31;;;;;;;149.75;81.72;;;4.30;99.90;;;;;;5019190;28;20487;-81
2021/12/21 09:39:58;;;;;;;45.88;26.58;;;4.40;99.90;;;;;;5020468;28;20046;-81
2021/12/21 09:42:30;;;;;;;142.60;71.72;;;4.40;99.90;;;;;;5020400;28;20071;-81
2021/12/21 09:44:57;;;;;;;56.53;33.20;;;4.50;99.90;;;;;;5019116;28;20028;-80
2021/12/21 09:47:24;;;;;;;59.92;35.15;;;4.50;99.90;;;;;;5018840;28;20100;-81
2021/12/21 09:49:50;;;;;;;51.95;31.30;;;4.60;99.90;;;;;;5026193;28;20029;-80
2021/12/21 09:52:25;;;;;;;73.75;42.38;;;4.60;99.90;;;;;;5040029;28;20482;-80
2021/12/21 09:54:51;;;;;;;53.97;34.80;;;4.60;99.90;;;;;;5038777;28;20022;-80
2021/12/21 09:57:18;;;;;;;51.90;28.63;;;4.70;99.90;;;;;;5038765;28;20022;-80
2021/12/21 09:59:45;;;;;;;52.30;31.27;;;4.70;99.90;;;;;;5040119;28;20051;-80
2021/12/21 10:02:12;;;;;;;73.80;41.95;;;4.70;99.90;;;;;;5038324;28;20040;-80
2021/12/21 10:04:54;;;;;;;43.92;26.30;;;4.70;99.90;;;;;;5039955;28;20022;-80
2021/12/21 10:07:22;;;;;;;55.13;35.28;;;4.70;99.90;;;;;;5038606;28;20132;-79
2021/12/21 10:09:50;;;;;;;41.45;25.17;;;4.80;99.90;;;;;;5039750;28;20025;-80
2021/12/21 10:12:32;;;;;;;39.40;26.73;;;4.80;99.90;;;;;;5039894;28;20027;-80
2021/12/21 10:15:21;;;;;;;41.33;28.13;;;4.80;99.90;;;;;;5040089;28;20017;-79
2021/12/21 10:17:57;;;;;;;42.40;25.38;;;4.90;99.90;;;;;;5038487;28;20051;-79
2021/12/21 10:20:36;;;;;;;39.35;25.80;;;4.90;99.90;;;;;;5039526;28;20030;-79
2021/12/21 10:23:14;;;;;;;44.78;27.00;;;5.00;99.90;;;;;;5038092;28;20044;-79
2021/12/21 10:25:45;;;;;;;47.03;26.63;;;5.10;99.90;;;;;;5039633;28;20037;-79
2021/12/21 10:28:11;;;;;;;;;;;5.20;99.90;;;;;;5037366;28;20038;-80
2021/12/21 10:30:56;;;;;;;43.30;25.40;;;5.20;99.90;;;;;;5018796;28;20327;-80
2021/12/21 10:33:24;;;;;;;39.50;24.20;;;5.20;99.90;;;;;;5019460;28;20021;-80
2021/12/21 10:35:53;;;;;;;38.20;25.45;;;5.20;99.90;;;;;;5019445;28;20026;-81
2021/12/21 10:38:35;;;;;;;44.17;23.92;;;5.30;99.90;;;;;;5018066;28;20025;-78
2021/12/21 10:41:09;;;;;;;41.55;25.42;;;5.40;99.90;;;;;;5019305;28;20021;-81
2021/12/21 10:43:35;;;;;;;38.38;23.08;;;5.50;99.90;;;;;;5019352;28;20394;-80
2021/12/21 10:46:02;;;;;;;35.60;22.85;;;5.60;99.90;;;;;;5019230;28;20022;-81
2021/12/21 10:48:29;;;;;;;34.50;23.58;;;5.70;99.90;;;;;;5019071;28;20080;-80
2021/12/21 10:50:55;;;;;;;37.47;23.10;;;5.70;99.90;;;;;;5019078;28;20040;-80
2021/12/21 10:53:26;;;;;;;29.38;20.75;;;5.70;99.90;;;;;;5019188;28;20018;-80
2021/12/21 10:56:00;;;;;;;34.22;20.88;;;5.70;99.90;;;;;;5019072;28;20041;-81
2021/12/21 10:58:28;;;;;;;36.03;22.20;;;5.70;99.90;;;;;;5019018;28;20022;-81
2021/12/21 11:01:02;;;;;;;31.02;21.15;;;5.70;99.90;;;;;;5017635;28;20040;-81
2021/12/21 11:03:31;;;;;;;190.55;70.35;;;5.70;99.90;;;;;;5005108;28;20026;-81
2021/12/21 11:06:12;;;;;;;441.63;148.23;;;5.80;99.90;;;;;;5037198;28;20366;-81
2021/12/21 11:08:44;;;;;;;85.65;35.45;;;5.80;99.90;;;;;;5038462;28;20466;-81
2021/12/21 11:11:32;;;;;;;117.97;45.92;;;5.90;99.90;;;;;;5028529;28;20052;-80
2021/12/21 11:14:14;;;;;;;80.88;38.13;;;5.90;99.90;;;;;;5049547;28;20045;-80
2021/12/21 11:16:44;;;;;;;34.35;21.33;;;6.00;99.90;;;;;;5017849;28;20029;-81
2021/12/21 11:19:12;;;;;;;69.05;34.35;;;6.00;99.90;;;;;;5017524;28;20490;-80
2021/12/21 11:21:40;;;;;;;81.75;40.50;;;6.10;99.90;;;;;;5017896;28;20025;-81
2021/12/21 11:24:08;;;;;;;75.28;36.50;;;6.10;99.90;;;;;;5014013;28;20049;-81
2021/12/21 11:26:35;;;;;;;163.50;72.88;;;6.10;99.90;;;;;;5018176;28;20521;-79
2021/12/21 11:29:05;;;;;;;183.65;79.85;;;6.10;99.90;;;;;;5018316;28;20049;-80
2021/12/21 11:31:35;;;;;;;93.55;52.33;;;6.10;99.90;;;;;;5042724;28;20041;-81
2021/12/21 11:34:01;;;;;;;77.15;41.55;;;6.20;99.90;;;;;;5029796;28;20014;-81
2021/12/21 11:39:13;;;;;;;124.28;64.40;;;6.30;99.90;;;;;;5018251;28;20165;-79
2021/12/21 11:41:41;;;;;;;135.00;67.32;;;6.30;99.90;;;;;;5018058;28;20052;-79
2021/12/21 11:44:37;;;;;;;130.68;65.53;;;6.40;99.90;;;;;;5009988;28;20057;-80
2021/12/21 11:47:08;;;;;;;44.17;25.95;;;6.50;99.90;;;;;;5012694;28;20037;-79
2021/12/21 11:49:46;;;;;;;43.15;25.65;;;6.60;99.90;;;;;;5017636;28;20466;-79
2021/12/21 11:52:18;;;;;;;55.67;30.17;;;6.60;99.90;;;;;;5016582;28;20030;-80
2021/12/21 11:54:51;;;;;;;138.93;62.40;;;6.70;99.90;;;;;;5018070;28;20026;-79
2021/12/21 11:57:19;;;;;;;165.70;74.47;;;6.80;99.90;;;;;;5017628;28;20022;-79
2021/12/21 11:59:49;;;;;;;97.45;47.90;;;6.80;99.90;;;;;;5018086;28;20053;-79
2021/12/21 12:02:27;;;;;;;45.58;23.20;;;6.90;99.90;;;;;;5017459;28;20040;-79
2021/12/21 12:04:57;;;;;;;27.40;18.75;;;6.90;99.90;;;;;;5017834;28;20502;-80
2021/12/21 12:07:23;;;;;;;24.90;17.00;;;6.90;99.90;;;;;;5016061;28;20042;-79
2021/12/21 12:10:05;;;;;;;83.65;40.83;;;7.00;99.90;;;;;;5016347;28;20445;-80
2021/12/21 12:12:32;;;;;;;44.17;26.85;;;7.00;99.90;;;;;;5017437;28;20479;-79
2021/12/21 12:15:05;;;;;;;213.10;87.88;;;7.10;99.90;;;;;;5016193;28;20029;-79
2021/12/21 12:17:31;;;;;;;81.10;43.25;;;7.10;99.90;;;;;;5017310;28;20386;-79
2021/12/21 12:20:07;;;;;;;33.13;20.02;;;7.20;99.90;;;;;;5017616;28;20517;-80
2021/12/21 12:22:37;;;;;;;47.20;27.27;;;7.10;99.90;;;;;;5017332;28;20437;-80
2021/12/21 12:25:05;;;;;;;25.77;16.90;;;7.20;99.90;;;;;;5016071;28;20034;-79
2021/12/21 12:27:31;;;;;;;29.63;18.80;;;7.20;99.90;;;;;;5017349;28;20552;-79
2021/12/21 12:29:58;;;;;;;28.25;16.75;;;7.30;99.90;;;;;;5017288;28;20026;-79
2021/12/21 12:32:47;;;;;;;31.75;21.40;;;7.30;99.90;;;;;;5017206;28;20480;-80
2021/12/21 12:35:19;;;;;;;43.30;27.80;;;7.30;99.90;;;;;;5015689;28;20083;-79
2021/12/21 12:38:05;;;;;;;25.13;16.35;;;7.30;99.90;;;;;;5017192;28;20564;-80
2021/12/21 12:40:33;;;;;;;28.73;17.77;;;7.40;99.90;;;;;;5017283;28;20113;-80
2021/12/21 12:43:32;;;;;;;27.00;14.68;;;7.40;99.90;;;;;;5017131;28;20033;-80
2021/12/21 12:46:03;;;;;;;25.58;15.43;;;7.40;99.90;;;;;;5010721;28;20049;-80
2021/12/21 12:48:32;;;;;;;;;;;7.50;99.90;;;;;;5016076;28;20034;-80
2021/12/21 12:51:04;;;;;;;34.20;23.58;;;7.50;99.90;;;;;;5015477;28;19909;-79
2021/12/21 12:53:39;;;;;;;86.07;51.58;;;7.50;99.90;;;;;;5018663;28;20141;-80
2021/12/21 12:56:07;;;;;;;32.38;22.08;;;7.60;99.90;;;;;;5021007;28;20030;-80
2021/12/21 12:58:35;;;;;;;35.90;21.92;;;7.50;99.90;;;;;;5019661;28;20103;-79
2021/12/21 13:01:10;;;;;;;26.85;18.70;;;7.60;99.90;;;;;;5020239;28;20025;-80
2021/12/21 13:03:40;;;;;;;42.90;24.83;;;7.60;99.90;;;;;;5020276;28;20558;-79
2021/12/21 13:06:27;;;;;;;22.42;14.55;;;7.60;99.90;;;;;;5019261;28;20089;-79
2021/12/21 13:08:52;;;;;;;26.60;20.80;;;7.60;99.90;;;;;;5020290;28;20452;-80
2021/12/21 13:11:31;;;;;;;18.95;14.27;;;7.60;99.90;;;;;;5051966;28;20029;-79
2021/12/21 13:13:57;;;;;;;19.98;13.07;;;7.60;99.90;;;;;;5020184;28;20474;-80
2021/12/21 13:16:26;;;;;;;20.65;14.93;;;7.70;99.90;;;;;;5018011;28;20445;-79
2021/12/21 13:18:54;;;;;;;22.38;15.77;;;7.60;99.90;;;;;;5019732;28;20105;-79
2021/12/21 13:21:24;;;;;;;22.23;16.20;;;7.60;99.90;;;;;;5017030;28;20025;-79
2021/12/21 13:24:03;;;;;;;22.80;14.48;;;7.60;99.90;;;;;;5020120;28;20022;-79
2021/12/21 13:26:45;;;;;;;22.42;13.73;;;7.60;99.90;;;;;;5044025;28;20026;-80
2021/12/21 13:29:14;;;;;;;16.83;12.65;;;7.50;99.90;;;;;;5018847;28;20049;-79
2021/12/21 13:31:40;;;;;;;20.45;13.40;;;7.50;99.90;;;;;;5020031;28;20071;-79
2021/12/21 13:34:06;;;;;;;20.08;13.35;;;7.50;99.90;;;;;;5019742;28;20033;-80
2021/12/21 13:36:37;;;;;;;18.95;12.15;;;7.60;99.90;;;;;;5018549;28;20014;-79
2021/12/21 13:39:15;;;;;;;17.67;13.05;;;7.60;99.90;;;;;;5019782;28;20034;-79
2021/12/21 13:41:51;;;;;;;20.33;13.38;;;7.60;99.90;;;;;;5019059;28;20490;-80
2021/12/21 13:44:22;;;;;;;17.05;11.85;;;7.60;99.90;;;;;;5046237;28;20038;-81